createdAt,value
2022-10-06T00:03:45.211Z,100.00
2022-10-06T00:08:47.696Z,100.00
2022-10-06T00:13:49.150Z,100.00
2022-10-06T00:18:50.745Z,100.00
2022-10-06T00:23:52.214Z,100.00
2022-10-06T00:28:53.675Z,100.00
2022-10-06T00:33:55.163Z,100.00
2022-10-06T00:38:56.706Z,100.00
2022-10-06T00:43:59.301Z,100.00
2022-10-06T00:49:13.686Z,100.00
2022-10-06T00:54:16.559Z,100.00
2022-10-06T00:59:19.601Z,100.00
2022-10-06T01:04:22.093Z,100.00
2022-10-06T01:09:25.444Z,100.00
2022-10-06T01:14:27.610Z,100.00
2022-10-06T01:19:31.813Z,100.00
2022-10-06T01:24:33.400Z,100.00
2022-10-06T01:29:35.915Z,100.00
2022-10-06T01:34:37.376Z,100.00
2022-10-06T01:39:38.914Z,100.00
2022-10-06T01:44:40.634Z,100.00
2022-10-06T01:49:42.072Z,100.00
2022-10-06T01:54:43.509Z,100.00
2022-10-06T01:59:44.984Z,100.00
2022-10-06T02:04:46.501Z,100.00
2022-10-06T02:09:47.960Z,100.00
2022-10-06T02:14:49.416Z,99.73
2022-10-06T02:19:50.966Z,99.72
2022-10-06T02:24:52.440Z,99.85
2022-10-06T02:29:55.870Z,99.64
2022-10-06T02:34:57.301Z,99.63
2022-10-06T02:39:58.770Z,99.49
2022-10-06T02:45:00.194Z,99.66
2022-10-06T02:50:04.036Z,100.00
2022-10-06T02:55:07.463Z,100.00
2022-10-06T03:00:10.483Z,100.00
2022-10-06T03:05:11.934Z,100.00
2022-10-06T03:10:13.407Z,100.00
2022-10-06T03:15:14.934Z,100.00
2022-10-06T03:20:16.398Z,100.00
2022-10-06T03:25:17.953Z,100.00
2022-10-06T03:30:19.576Z,100.00
2022-10-06T03:35:21.337Z,100.00
2022-10-06T03:40:22.792Z,100.00
2022-10-06T03:45:24.267Z,100.00
2022-10-06T03:50:25.745Z,100.00
2022-10-06T03:55:27.183Z,100.00
2022-10-06T04:00:29.059Z,100.00
2022-10-06T04:05:30.513Z,100.00
2022-10-06T04:10:33.245Z,100.00
2022-10-06T04:15:34.788Z,100.00
2022-10-06T04:20:36.328Z,100.00
2022-10-06T04:25:37.922Z,100.00
2022-10-06T04:30:39.423Z,100.00
2022-10-06T04:35:40.881Z,100.00
2022-10-06T04:40:42.321Z,100.00
2022-10-06T04:45:43.833Z,100.00
2022-10-06T04:50:53.822Z,100.00
2022-10-06T04:56:15.839Z,100.00
2022-10-06T05:01:20.178Z,100.00
2022-10-06T05:06:24.400Z,100.00
2022-10-06T05:11:26.653Z,100.00
2022-10-06T05:16:30.527Z,100.00
2022-10-06T05:21:33.019Z,100.00
2022-10-06T05:26:36.180Z,100.00
2022-10-06T05:31:43.092Z,100.00
2022-10-06T05:36:44.622Z,100.00
2022-10-06T05:41:46.078Z,100.00
2022-10-06T05:46:47.578Z,100.00
2022-10-06T05:51:49.111Z,100.00
2022-10-06T05:56:50.555Z,100.00
2022-10-06T06:01:52.240Z,100.00
2022-10-06T06:06:53.769Z,100.00
2022-10-06T06:11:55.754Z,100.00
2022-10-06T06:16:57.229Z,100.00
2022-10-06T06:21:58.770Z,100.00
2022-10-06T06:27:00.298Z,100.00
2022-10-06T06:32:01.874Z,100.00
2022-10-06T06:37:07.498Z,100.00
2022-10-06T06:42:10.818Z,100.00
2022-10-06T06:47:12.636Z,100.00
2022-10-06T06:52:14.284Z,100.00
2022-10-06T06:57:16.538Z,100.00
2022-10-06T07:02:18.043Z,100.00
2022-10-06T07:07:20.869Z,100.00
2022-10-06T07:12:22.405Z,100.00
2022-10-06T07:17:42.475Z,100.00
2022-10-06T07:23:02.892Z,100.00
2022-10-06T07:28:04.592Z,100.00
2022-10-06T07:33:06.525Z,100.00
2022-10-06T07:38:08.618Z,100.00
2022-10-06T07:43:10.083Z,100.00
2022-10-06T07:48:18.118Z,100.00
2022-10-06T07:53:20.059Z,100.00
2022-10-06T07:58:24.148Z,100.00
2022-10-06T08:03:25.934Z,100.00
2022-10-06T08:08:30.273Z,100.00
2022-10-06T08:13:34.825Z,100.00
2022-10-06T08:18:51.793Z,100.00
2022-10-06T08:23:54.217Z,100.00
2022-10-06T08:29:03.173Z,100.00
2022-10-06T08:34:11.811Z,100.00
2022-10-06T08:39:13.655Z,100.00
2022-10-06T08:44:26.648Z,98.53
2022-10-06T08:49:37.384Z,97.27
2022-10-06T08:54:52.519Z,95.50
2022-10-06T08:59:54.285Z,94.11
2022-10-06T09:05:00.075Z,92.19
2022-10-06T09:10:01.485Z,89.30
2022-10-06T09:15:09.682Z,88.97
2022-10-06T09:20:20.699Z,88.35
2022-10-06T09:25:28.097Z,85.97
2022-10-06T09:30:29.451Z,84.76
2022-10-06T09:35:32.209Z,84.72
2022-10-06T09:40:36.472Z,82.95
2022-10-06T09:45:37.928Z,81.30
2022-10-06T09:50:40.606Z,79.77
2022-10-06T09:55:46.780Z,80.33
2022-10-06T10:00:55.682Z,79.07
2022-10-06T10:05:59.717Z,78.71
2022-10-06T10:11:37.064Z,77.38
2022-10-06T10:16:38.596Z,77.03
2022-10-06T10:21:41.801Z,75.54
2022-10-06T10:26:50.077Z,74.43
2022-10-06T10:31:57.483Z,75.37
2022-10-06T10:37:04.809Z,74.61
2022-10-06T10:42:12.009Z,72.75
2022-10-06T10:47:28.588Z,72.67
2022-10-06T10:52:35.820Z,71.80
2022-10-06T10:57:41.158Z,70.60
2022-10-06T11:02:42.721Z,70.31
2022-10-06T11:08:02.008Z,71.32
2022-10-06T11:13:19.906Z,71.37
2022-10-06T11:18:47.233Z,69.99
2022-10-06T11:23:55.718Z,69.31
2022-10-06T11:29:02.968Z,70.38
2022-10-06T11:34:06.420Z,70.12
2022-10-06T11:39:22.328Z,69.46
2022-10-06T11:44:32.019Z,69.65
2022-10-06T11:49:52.111Z,69.63
2022-10-06T11:54:56.478Z,68.63
2022-10-06T12:00:04.021Z,68.33
2022-10-06T12:05:55.249Z,68.66
2022-10-06T12:10:36.308Z,68.66
2022-10-06T12:22:08.322Z,69.56
2022-10-06T12:27:48.624Z,68.14
2022-10-06T12:32:54.622Z,68.71
2022-10-06T12:37:58.463Z,68.82
2022-10-06T12:43:17.291Z,68.36
2022-10-06T12:48:26.789Z,68.60
2022-10-06T12:53:34.580Z,68.57
2022-10-06T12:58:36.045Z,68.70
2022-10-06T13:03:38.471Z,69.05
2022-10-06T13:08:40.209Z,68.65
2022-10-06T13:13:53.679Z,67.77
2022-10-06T13:18:57.552Z,67.59
2022-10-06T13:23:59.191Z,67.95
2022-10-06T13:29:00.936Z,67.88
2022-10-06T13:34:05.344Z,67.69
2022-10-06T13:39:13.273Z,67.65
2022-10-06T13:44:14.672Z,67.81
2022-10-06T13:49:22.574Z,68.13
2022-10-06T13:54:38.951Z,69.17
2022-10-06T13:59:41.204Z,68.30
2022-10-06T14:04:42.715Z,67.70
2022-10-06T14:09:44.223Z,68.27
2022-10-06T14:14:49.242Z,68.46
2022-10-06T14:19:51.434Z,68.22
2022-10-06T14:24:53.135Z,69.15
2022-10-06T14:29:56.334Z,69.30
2022-10-06T14:34:58.705Z,70.53
2022-10-06T14:40:00.398Z,70.79
2022-10-06T14:45:02.781Z,71.49
2022-10-06T14:50:05.444Z,72.09
2022-10-06T15:00:32.162Z,72.56
2022-10-06T15:05:35.149Z,73.01
2022-10-06T15:10:39.187Z,73.29
2022-10-06T15:15:40.956Z,73.26
2022-10-06T15:20:47.353Z,74.06
2022-10-06T15:26:11.433Z,74.30
2022-10-06T15:31:12.951Z,73.82
2022-10-06T15:36:19.638Z,74.40
2022-10-06T15:41:22.153Z,73.54
2022-10-06T15:46:26.801Z,73.68
2022-10-06T15:51:38.423Z,73.77
2022-10-06T15:56:40.111Z,74.43
2022-10-06T16:01:46.702Z,75.02
2022-10-06T16:06:55.356Z,75.71
2022-10-06T16:11:58.318Z,76.68
2022-10-06T16:17:00.929Z,77.50
2022-10-06T16:22:02.916Z,77.71
2022-10-06T16:27:04.478Z,78.06
2022-10-06T16:32:05.938Z,78.35
2022-10-06T16:37:07.407Z,78.57
2022-10-06T16:42:10.886Z,78.90
2022-10-06T16:47:12.399Z,78.80
2022-10-06T16:52:13.925Z,79.14
2022-10-06T16:57:15.402Z,79.60
2022-10-06T17:02:17.214Z,79.73
2022-10-06T17:07:18.802Z,80.59
2022-10-06T17:12:20.267Z,81.08
2022-10-06T17:17:21.702Z,81.65
2022-10-06T17:22:23.225Z,82.10
2022-10-06T17:27:28.489Z,82.08
2022-10-06T17:32:29.914Z,82.73
2022-10-06T17:37:31.389Z,82.93
2022-10-06T17:42:32.935Z,83.15
2022-10-06T17:47:34.410Z,83.63
2022-10-06T17:52:39.099Z,83.94
2022-10-06T17:57:41.013Z,84.08
2022-10-06T18:02:42.773Z,84.13
2022-10-06T18:07:44.406Z,84.66
2022-10-06T18:12:46.460Z,84.88
2022-10-06T18:17:50.510Z,85.45
2022-10-06T18:22:53.040Z,85.83
2022-10-06T18:27:54.878Z,86.40
2022-10-06T18:35:29.913Z,87.28
2022-10-06T18:38:17.917Z,88.39
2022-10-06T18:43:19.393Z,89.39
2022-10-06T18:48:39.545Z,90.36
2022-10-06T18:53:41.030Z,91.05
2022-10-06T18:58:47.113Z,91.22
2022-10-06T19:03:48.890Z,91.06
2022-10-06T19:08:56.843Z,90.61
2022-10-06T19:13:59.882Z,90.00
2022-10-06T19:19:10.555Z,89.72
2022-10-06T19:24:14.978Z,89.45
2022-10-06T19:29:22.393Z,89.27
2022-10-06T19:34:25.068Z,89.16
2022-10-06T19:39:30.421Z,89.65
2022-10-06T19:44:31.894Z,89.91
2022-10-06T19:49:35.162Z,90.38
2022-10-06T19:54:37.088Z,90.98
2022-10-06T19:59:38.979Z,91.38
2022-10-06T20:04:41.053Z,92.12
2022-10-06T20:09:42.519Z,92.79
2022-10-06T20:14:44.144Z,93.59
2022-10-06T20:19:46.486Z,94.03
2022-10-06T20:24:47.975Z,94.33
2022-10-06T20:29:49.421Z,94.92
2022-10-06T20:34:50.867Z,95.41
2022-10-06T20:40:10.890Z,96.07
2022-10-06T20:45:12.338Z,96.81
2022-10-06T20:50:13.924Z,97.21
2022-10-06T20:55:15.474Z,97.63
2022-10-06T21:00:17.762Z,98.01
2022-10-06T21:05:20.076Z,98.65
2022-10-06T21:10:22.929Z,98.93
2022-10-06T21:15:24.357Z,99.22
2022-10-06T21:20:26.007Z,99.71
2022-10-06T21:25:27.476Z,99.91
2022-10-06T21:30:29.496Z,100.00
2022-10-06T21:35:30.947Z,100.00
2022-10-06T21:40:36.113Z,100.00
2022-10-06T21:45:39.098Z,100.00
2022-10-06T21:50:41.039Z,100.00
2022-10-06T21:55:42.488Z,100.00
2022-10-06T22:00:44.020Z,100.00
2022-10-06T22:05:45.519Z,100.00
2022-10-06T22:10:46.984Z,100.00
2022-10-06T22:15:48.500Z,100.00
2022-10-06T22:20:50.011Z,100.00
2022-10-06T22:25:55.910Z,100.00
2022-10-06T22:31:07.917Z,100.00
2022-10-06T22:36:11.987Z,100.00
2022-10-06T22:41:14.372Z,100.00
2022-10-06T22:46:15.861Z,100.00
2022-10-06T22:51:17.404Z,100.00
2022-10-06T22:56:19.215Z,100.00
2022-10-06T23:01:21.002Z,100.00
2022-10-06T23:06:22.532Z,100.00
2022-10-06T23:11:24.018Z,100.00
2022-10-06T23:16:25.558Z,100.00
2022-10-06T23:21:27.622Z,100.00
2022-10-06T23:26:31.399Z,100.00
2022-10-06T23:31:32.912Z,100.00
2022-10-06T23:36:34.412Z,100.00
2022-10-06T23:41:35.862Z,100.00
2022-10-06T23:46:37.296Z,100.00
2022-10-06T23:51:38.777Z,100.00
2022-10-06T23:56:40.231Z,100.00
